Impacts TAF Board
For situational awareness. Not to be used for flight planning purposes.
IDs:

KMPV - Montpelier/Knapp Arp, VT, US

Issued at 2320 UTC 28 Nov 2020
Updated at 0237 UTC 29 Nov 2020
Potential Impact None Slight Moderate High
Time0151Z 29/03Z 29/04Z 29/05Z 29/06Z 29/07Z 29/08Z 29/09Z 29/10Z 29/11Z 29/12Z 29/13Z 29/14Z 29/15Z>>
Type OBS PRVL PRVL PRVL PRVL PRVL PRVL PRVL PRVL PRVL PRVL PRVL PRVL PRVL
VIS 10 >6 >6 >6 >6 >6 >6 >6 >6 >6 >6 >6 >6 >6
CIG 50 60 60 60 -- -- -- -- -- -- -- -- -- --
Cover BKN BKN BKN BKN SCT SCT SCT SCT SCT SCT SCT SCT SCT SCT
FltCat VFR VFR VFR VFR VFR VFR VFR VFR VFR VFR VFR VFR VFR VFR
WX -- -- -- -- -- -- -- -- -- -- -- -- -- --
WDir 160 270 270 270 230 230 230 230 230 230 230 230 230 230
WSpd 4 4 4 4 4 4 4 4 4 4 4 4 4 4
WGst -- -- -- -- -- -- -- -- -- -- -- -- -- --
Raw TAF
KMPV 282320Z 2900/2924 27004KT P6SM BKN060
  FM290600 23004KT P6SM SCT080
  FM291800 20005KT P6SM FEW200


Raw METAR
KMPV 290151Z AUTO 16004KT 10SM BKN050 M01/M01 A2998 RMK AO2 SLP165 T10061011
KMPV 290051Z AUTO 19003KT 10SM BKN065 M01/M01 A2997 RMK AO2 SLP164 T10061006
KMPV 282351Z AUTO 00000KT 10SM CLR 02/M01 A2997 RMK AO2 SLP161 60004 I6000 T00171006 10056 21011 51013

METAR Board
Radar Display
Forecast Discussion
For situational awareness. Not to be used for flight planning purposes.